createdAt,value
2018-10-19T00:02:15.881Z,9.93
2018-10-19T00:04:43.978Z,11.57
2018-10-19T00:07:12.130Z,8.03
2018-10-19T00:09:40.317Z,15.87
2018-10-19T00:12:08.478Z,13.17
2018-10-19T00:14:36.956Z,9.23
2018-10-19T00:17:05.270Z,7.60
2018-10-19T00:19:33.410Z,12.03
2018-10-19T00:22:01.523Z,11.13
2018-10-19T00:24:29.693Z,11.77
2018-10-19T00:26:58.063Z,11.37
2018-10-19T00:29:26.222Z,9.53
2018-10-19T00:31:54.318Z,6.33
2018-10-19T00:34:22.463Z,8.37
2018-10-19T00:36:50.683Z,8.63
2018-10-19T00:39:18.834Z,9.37
2018-10-19T00:41:46.946Z,11.83
2018-10-19T00:44:15.043Z,9.03
2018-10-19T00:46:43.199Z,12.50
2018-10-19T00:49:11.306Z,10.77
2018-10-19T00:51:39.745Z,10.20
2018-10-19T00:54:08.233Z,10.20
2018-10-19T00:56:36.556Z,10.67
2018-10-19T00:59:04.723Z,8.97
2018-10-19T01:01:32.864Z,9.33
2018-10-19T01:04:00.948Z,6.07
2018-10-19T01:06:29.045Z,8.70
2018-10-19T01:08:57.208Z,5.90
2018-10-19T01:11:25.287Z,6.07
2018-10-19T01:13:53.431Z,7.67
2018-10-19T01:16:21.610Z,6.10
2018-10-19T01:18:49.686Z,11.63
2018-10-19T01:21:17.863Z,7.13
2018-10-19T01:23:45.946Z,9.43
2018-10-19T01:26:14.092Z,6.53
2018-10-19T01:28:42.199Z,12.03
2018-10-19T01:31:10.339Z,8.27
2018-10-19T01:33:38.435Z,12.77
2018-10-19T01:36:06.885Z,10.33
2018-10-19T01:38:35.280Z,5.53
2018-10-19T01:41:03.478Z,7.90
2018-10-19T01:43:31.600Z,9.67
2018-10-19T01:45:59.802Z,10.67
2018-10-19T01:48:28.471Z,8.17
2018-10-19T01:50:57.409Z,9.33
2018-10-19T01:53:25.473Z,8.33
2018-10-19T01:55:53.606Z,13.40
2018-10-19T01:58:21.722Z,10.07
2018-10-19T02:00:49.867Z,8.23
2018-10-19T02:03:18.083Z,11.47
2018-10-19T02:05:46.199Z,6.70
2018-10-19T02:08:14.312Z,6.83
2018-10-19T02:10:42.402Z,4.03
2018-10-19T02:13:10.846Z,10.27
2018-10-19T02:15:38.968Z,8.53
2018-10-19T02:18:07.377Z,9.47
2018-10-19T02:20:35.559Z,7.80
2018-10-19T02:23:03.663Z,7.37
2018-10-19T02:25:31.744Z,11.43
2018-10-19T02:27:59.828Z,9.67
2018-10-19T02:30:27.914Z,10.70
2018-10-19T02:32:56.198Z,9.50
2018-10-19T02:35:24.354Z,5.27
2018-10-19T02:37:52.456Z,8.77
2018-10-19T02:40:20.611Z,10.03
2018-10-19T02:42:48.871Z,10.60
2018-10-19T02:45:17.082Z,7.50
2018-10-19T02:47:45.064Z,8.33
2018-10-19T02:50:13.147Z,14.07
2018-10-19T02:52:41.291Z,8.70
2018-10-19T02:55:09.972Z,9.70
2018-10-19T02:57:38.071Z,15.93
2018-10-19T03:00:07.354Z,10.47
2018-10-19T03:02:35.435Z,9.03
2018-10-19T03:05:03.608Z,7.23
2018-10-19T03:07:31.683Z,9.90
2018-10-19T03:09:59.851Z,11.93
2018-10-19T03:12:27.943Z,7.27
2018-10-19T03:14:56.135Z,9.50
2018-10-19T03:17:24.180Z,10.73
2018-10-19T03:19:52.264Z,13.63
2018-10-19T03:22:20.398Z,9.83
2018-10-19T03:24:48.479Z,10.10
2018-10-19T03:27:16.693Z,11.67
2018-10-19T03:29:44.794Z,11.03
2018-10-19T03:32:12.906Z,10.37
2018-10-19T03:34:41.050Z,10.00
2018-10-19T03:37:09.176Z,10.67
2018-10-19T03:39:37.295Z,6.70
2018-10-19T03:42:05.406Z,11.77
2018-10-19T03:44:33.561Z,12.33
2018-10-19T03:47:01.732Z,11.20
2018-10-19T03:49:29.900Z,7.83
2018-10-19T03:51:57.999Z,12.80
2018-10-19T03:54:26.140Z,7.50
2018-10-19T03:56:54.239Z,7.40
2018-10-19T03:59:22.383Z,10.50
2018-10-19T04:01:50.483Z,10.53
2018-10-19T04:04:18.569Z,14.13
2018-10-19T04:06:46.710Z,11.87
2018-10-19T04:09:15.005Z,11.23
2018-10-19T04:11:42.901Z,9.97
2018-10-19T04:14:12.162Z,11.10
2018-10-19T04:16:40.618Z,6.90
2018-10-19T04:19:09.511Z,10.70
2018-10-19T04:21:37.587Z,7.83
2018-10-19T04:24:05.968Z,6.90
2018-10-19T04:26:34.143Z,9.77
2018-10-19T04:29:02.579Z,12.57
2018-10-19T04:31:30.756Z,11.43
2018-10-19T04:33:58.830Z,8.53
2018-10-19T04:36:27.055Z,8.57
2018-10-19T04:38:55.169Z,11.33
2018-10-19T04:41:23.329Z,11.17
2018-10-19T04:43:51.479Z,8.90
2018-10-19T04:46:19.646Z,9.57
2018-10-19T04:48:48.165Z,8.33
2018-10-19T04:51:16.378Z,12.50
2018-10-19T04:53:44.523Z,7.33
2018-10-19T04:56:12.643Z,9.83
2018-10-19T04:58:40.735Z,8.57
2018-10-19T05:01:08.887Z,12.07
2018-10-19T05:03:36.999Z,8.80
2018-10-19T05:06:05.314Z,9.90
2018-10-19T05:08:33.312Z,6.47
2018-10-19T05:11:01.418Z,11.07
2018-10-19T05:13:29.566Z,7.73
2018-10-19T05:15:57.656Z,8.97
2018-10-19T05:18:25.780Z,7.33
2018-10-19T05:20:54.183Z,11.27
2018-10-19T05:23:22.299Z,9.00
2018-10-19T05:25:50.419Z,13.13
2018-10-19T05:28:18.627Z,5.73
2018-10-19T05:30:46.786Z,8.03
2018-10-19T05:33:14.904Z,8.93
2018-10-19T05:35:43.015Z,9.57
2018-10-19T05:38:11.226Z,8.53
2018-10-19T05:40:39.382Z,8.63
2018-10-19T05:43:07.543Z,8.03
2018-10-19T05:45:35.632Z,7.90
2018-10-19T05:48:03.732Z,13.90
2018-10-19T05:50:31.851Z,8.43
2018-10-19T05:53:00.098Z,11.23
2018-10-19T05:55:28.220Z,8.90
2018-10-19T05:57:56.311Z,9.73
2018-10-19T06:00:24.464Z,11.13
2018-10-19T06:02:52.584Z,10.70
2018-10-19T06:05:20.699Z,6.87
2018-10-19T06:07:48.824Z,10.00
2018-10-19T06:10:16.978Z,8.40
2018-10-19T06:12:45.132Z,5.87
2018-10-19T06:15:13.238Z,7.27
2018-10-19T06:17:41.380Z,10.03
2018-10-19T06:20:09.672Z,10.30
2018-10-19T06:22:37.714Z,9.50
2018-10-19T06:25:05.882Z,11.30
2018-10-19T06:27:33.997Z,10.93
2018-10-19T06:30:02.226Z,8.17
2018-10-19T06:32:30.415Z,10.03
2018-10-19T06:34:58.514Z,10.87
2018-10-19T06:37:26.773Z,10.07
2018-10-19T06:39:54.950Z,11.47
2018-10-19T06:42:23.059Z,9.43
2018-10-19T06:44:51.169Z,6.40
2018-10-19T06:47:19.349Z,8.17
2018-10-19T06:49:47.468Z,8.07
2018-10-19T06:52:15.599Z,7.57
2018-10-19T06:54:43.699Z,10.13
2018-10-19T06:57:11.788Z,7.73
2018-10-19T06:59:39.934Z,7.13
2018-10-19T07:02:08.084Z,6.93
2018-10-19T07:04:36.173Z,9.40
2018-10-19T07:07:04.552Z,8.73
2018-10-19T07:09:32.635Z,10.13
2018-10-19T07:12:00.760Z,9.37
2018-10-19T07:14:28.969Z,10.07
2018-10-19T07:16:57.071Z,11.13
2018-10-19T07:19:25.174Z,8.50
2018-10-19T07:21:53.284Z,8.47
2018-10-19T07:24:21.392Z,12.53
2018-10-19T07:26:49.511Z,13.50
2018-10-19T07:29:17.681Z,16.90
2018-10-19T07:31:45.775Z,10.37
2018-10-19T07:34:13.947Z,15.33
2018-10-19T07:36:42.039Z,12.23
2018-10-19T07:39:10.213Z,15.27
2018-10-19T07:41:38.375Z,10.53
2018-10-19T07:44:06.702Z,10.33
2018-10-19T07:46:34.820Z,11.80
2018-10-19T07:49:03.023Z,10.00
2018-10-19T07:51:31.123Z,9.00
2018-10-19T07:53:59.254Z,11.00
2018-10-19T07:56:27.410Z,13.73
2018-10-19T07:58:55.510Z,12.07
2018-10-19T08:01:23.635Z,9.57
2018-10-19T08:03:51.949Z,11.70
2018-10-19T08:06:20.129Z,11.10
2018-10-19T08:08:48.284Z,11.80
2018-10-19T08:11:16.504Z,11.70
2018-10-19T08:13:44.523Z,9.70
2018-10-19T08:16:12.603Z,13.60
2018-10-19T08:18:40.697Z,9.70
2018-10-19T08:21:08.899Z,10.23
2018-10-19T08:23:37.017Z,9.90
2018-10-19T08:26:05.232Z,10.73
2018-10-19T08:28:33.356Z,12.37
2018-10-19T08:31:01.564Z,12.33
2018-10-19T08:33:29.715Z,9.90
2018-10-19T08:35:57.812Z,8.73
2018-10-19T08:38:25.965Z,13.30
2018-10-19T08:40:54.174Z,10.33
2018-10-19T08:43:22.257Z,16.07
2018-10-19T08:45:50.380Z,10.73
2018-10-19T08:48:18.492Z,11.10
2018-10-19T08:50:46.644Z,11.03
2018-10-19T08:53:14.823Z,11.20
2018-10-19T08:55:42.900Z,13.33
2018-10-19T08:58:11.083Z,13.23
2018-10-19T09:00:39.243Z,15.90
2018-10-19T09:03:07.440Z,18.43
2018-10-19T09:05:35.494Z,12.80
2018-10-19T09:08:03.591Z,14.77
2018-10-19T09:10:32.308Z,15.87
2018-10-19T09:13:00.403Z,11.97
2018-10-19T09:15:28.541Z,16.50
2018-10-19T09:17:56.663Z,14.63
2018-10-19T09:20:24.941Z,14.37
2018-10-19T09:22:53.160Z,11.87
2018-10-19T09:25:21.274Z,15.57
2018-10-19T09:27:49.389Z,20.20
2018-10-19T09:30:17.548Z,13.23
2018-10-19T09:32:45.692Z,22.30
2018-10-19T09:35:13.850Z,17.83
2018-10-19T09:37:41.930Z,13.77
2018-10-19T09:40:10.064Z,15.07
2018-10-19T09:42:38.188Z,15.27
2018-10-19T09:45:06.836Z,10.57
2018-10-19T09:47:35.032Z,14.00
2018-10-19T09:50:03.069Z,16.83
2018-10-19T09:52:31.195Z,17.37
2018-10-19T09:54:59.536Z,13.53
2018-10-19T09:57:27.611Z,16.13
2018-10-19T09:59:55.799Z,19.13
2018-10-19T10:02:23.904Z,13.40
2018-10-19T10:04:52.061Z,14.43
2018-10-19T10:07:20.173Z,15.37
2018-10-19T10:09:48.299Z,13.60
2018-10-19T10:12:16.396Z,15.57
2018-10-19T10:14:44.546Z,19.20
2018-10-19T10:17:12.745Z,15.80
2018-10-19T10:19:40.828Z,13.33
2018-10-19T10:22:09.919Z,12.30
2018-10-19T10:24:37.959Z,15.63
2018-10-19T10:27:06.080Z,12.17
2018-10-19T10:29:34.178Z,16.70
2018-10-19T10:32:02.309Z,18.93
2018-10-19T10:34:30.455Z,16.83
2018-10-19T10:36:58.555Z,16.33
2018-10-19T10:39:26.711Z,17.90
2018-10-19T10:41:54.795Z,15.43
2018-10-19T10:44:22.959Z,11.57
2018-10-19T10:46:51.077Z,17.27
2018-10-19T10:49:19.335Z,13.17
2018-10-19T10:51:47.494Z,16.10
2018-10-19T10:54:15.589Z,14.93
2018-10-19T10:56:43.717Z,13.33
2018-10-19T10:59:11.811Z,17.93
2018-10-19T11:01:39.952Z,15.03
2018-10-19T11:04:08.148Z,15.63
2018-10-19T11:06:36.211Z,14.53
2018-10-19T11:09:05.394Z,16.30
2018-10-19T11:11:33.485Z,14.27
2018-10-19T11:14:01.592Z,15.33
2018-10-19T11:16:30.250Z,15.43
2018-10-19T11:18:58.420Z,12.63
2018-10-19T11:21:26.569Z,14.97
2018-10-19T11:23:54.827Z,16.07
2018-10-19T11:26:22.941Z,14.57
2018-10-19T11:28:51.024Z,14.43
2018-10-19T11:31:19.163Z,15.47
2018-10-19T11:33:47.375Z,14.87
2018-10-19T11:36:15.500Z,19.10
2018-10-19T11:38:43.598Z,13.53
2018-10-19T11:41:11.696Z,13.67
2018-10-19T11:43:39.847Z,17.27
2018-10-19T11:46:07.950Z,15.13
2018-10-19T11:48:36.164Z,19.73
2018-10-19T11:51:04.495Z,12.97
2018-10-19T11:53:32.637Z,17.43
2018-10-19T11:56:00.748Z,15.00
2018-10-19T11:58:28.895Z,15.60
2018-10-19T12:00:57.077Z,15.90
2018-10-19T12:03:25.239Z,14.87
2018-10-19T12:05:53.425Z,13.10
2018-10-19T12:08:21.594Z,13.17
2018-10-19T12:10:49.743Z,14.93
2018-10-19T12:13:17.860Z,15.37
2018-10-19T12:15:46.028Z,13.73
2018-10-19T12:18:14.132Z,12.77
2018-10-19T12:20:42.270Z,14.00
2018-10-19T12:23:10.431Z,15.43
2018-10-19T12:25:38.652Z,13.53
2018-10-19T12:28:06.778Z,11.57
2018-10-19T12:30:34.900Z,15.63
2018-10-19T12:33:03.160Z,14.27
2018-10-19T12:35:31.313Z,16.13
2018-10-19T12:37:59.435Z,12.43
2018-10-19T12:40:27.579Z,14.13
2018-10-19T12:42:55.702Z,11.93
2018-10-19T12:46:29.648Z,17.70
2018-10-19T12:48:57.832Z,13.57
2018-10-19T12:51:26.006Z,12.73
2018-10-19T12:53:54.168Z,11.50
2018-10-19T12:56:22.798Z,10.33
2018-10-19T12:58:52.035Z,11.13
2018-10-19T13:03:53.533Z,11.17
2018-10-19T13:06:21.712Z,14.97
2018-10-19T13:08:49.986Z,11.60
2018-10-19T13:11:18.207Z,15.17
2018-10-19T13:13:46.327Z,11.80
2018-10-19T13:16:14.539Z,15.07
2018-10-19T13:18:42.678Z,12.90
2018-10-19T13:21:10.941Z,11.10
2018-10-19T13:23:39.036Z,12.97
2018-10-19T13:26:07.114Z,13.63
2018-10-19T13:28:35.315Z,13.67
2018-10-19T13:31:03.543Z,13.60
2018-10-19T13:33:31.690Z,13.13
2018-10-19T13:35:59.850Z,13.50
2018-10-19T13:38:27.991Z,10.57
2018-10-19T13:40:56.369Z,9.73
2018-10-19T13:43:25.035Z,10.97
2018-10-19T13:45:53.464Z,10.73
2018-10-19T13:48:22.001Z,11.60
2018-10-19T13:50:50.365Z,12.63
2018-10-19T13:53:18.462Z,11.43
2018-10-19T13:55:46.560Z,11.47
2018-10-19T13:58:14.849Z,9.93
2018-10-19T14:00:43.041Z,15.53
2018-10-19T14:03:11.249Z,12.97
2018-10-19T14:05:39.465Z,12.23
2018-10-19T14:08:07.491Z,9.70
2018-10-19T14:10:35.678Z,10.70
2018-10-19T14:13:03.784Z,10.40
2018-10-19T14:15:31.871Z,13.43
2018-10-19T14:18:00.699Z,12.43
2018-10-19T14:20:28.896Z,12.43
2018-10-19T14:22:57.071Z,11.23
2018-10-19T14:25:25.263Z,14.20
2018-10-19T14:27:53.407Z,10.93
2018-10-19T14:30:21.501Z,13.90
2018-10-19T14:32:49.651Z,13.33
2018-10-19T14:35:17.848Z,14.07
2018-10-19T14:37:46.399Z,12.13
2018-10-19T14:40:18.864Z,17.33
2018-10-19T14:42:47.470Z,14.40
2018-10-19T14:45:16.354Z,12.07
2018-10-19T14:47:45.457Z,10.60
2018-10-19T14:50:14.966Z,10.57
2018-10-19T14:52:43.075Z,12.83
2018-10-19T14:55:12.877Z,12.73
2018-10-19T14:57:41.014Z,11.57
2018-10-19T15:00:11.032Z,12.83
2018-10-19T15:02:39.300Z,8.80
2018-10-19T15:05:08.554Z,12.90
2018-10-19T15:07:37.188Z,11.20
2018-10-19T15:10:06.510Z,12.40
2018-10-19T15:12:34.463Z,12.80
2018-10-19T15:15:02.763Z,11.73
2018-10-19T15:17:31.002Z,11.77
2018-10-19T15:19:59.108Z,12.40
2018-10-19T15:22:27.197Z,12.20
2018-10-19T15:24:55.357Z,11.13
2018-10-19T15:27:23.670Z,14.37
2018-10-19T15:39:17.001Z,13.07
2018-10-19T15:41:45.114Z,14.13
2018-10-19T15:44:13.217Z,15.07
2018-10-19T15:46:41.443Z,13.17
2018-10-19T15:49:09.520Z,11.60
2018-10-19T15:51:37.619Z,13.60
2018-10-19T15:54:05.778Z,12.47
2018-10-19T15:56:33.943Z,14.20
2018-10-19T15:59:02.221Z,14.07
2018-10-19T16:01:31.124Z,13.13
2018-10-19T16:03:59.231Z,12.80
2018-10-19T16:06:27.802Z,13.27
2018-10-19T16:08:55.960Z,11.10
2018-10-19T16:11:24.035Z,12.37
2018-10-19T16:13:52.160Z,12.33
2018-10-19T16:16:20.275Z,15.03
2018-10-19T16:18:48.419Z,9.53
2018-10-19T16:21:16.586Z,9.70
2018-10-19T16:23:44.650Z,15.47
2018-10-19T16:26:12.763Z,13.80
2018-10-19T16:28:40.863Z,10.57
2018-10-19T16:31:09.014Z,13.33
2018-10-19T16:33:37.110Z,15.37
2018-10-19T16:36:05.654Z,11.80
2018-10-19T16:38:33.691Z,10.83
2018-10-19T16:41:01.802Z,11.33
2018-10-19T16:43:29.965Z,13.20
2018-10-19T16:45:58.090Z,13.97
2018-10-19T16:48:26.196Z,12.93
2018-10-19T16:50:54.306Z,10.63
2018-10-19T16:53:22.459Z,11.63
2018-10-19T16:55:50.631Z,13.63
2018-10-19T16:58:18.817Z,12.23
2018-10-19T17:00:47.006Z,13.20
2018-10-19T17:03:15.166Z,14.73
2018-10-19T17:05:43.382Z,12.77
2018-10-19T17:08:11.502Z,11.63
2018-10-19T17:10:39.612Z,12.80
2018-10-19T17:13:07.750Z,13.63
2018-10-19T17:15:35.935Z,17.50
2018-10-19T17:18:04.149Z,12.30
2018-10-19T17:20:32.251Z,12.83
2018-10-19T17:23:01.123Z,11.50
2018-10-19T17:25:29.271Z,13.00
2018-10-19T17:27:57.320Z,12.37
2018-10-19T17:30:25.487Z,16.10
2018-10-19T17:32:53.739Z,11.67
2018-10-19T17:35:21.850Z,12.77
2018-10-19T17:37:49.946Z,11.57
2018-10-19T17:40:18.118Z,12.63
2018-10-19T17:42:46.274Z,15.97
2018-10-19T17:45:14.412Z,14.93
2018-10-19T17:47:42.927Z,11.90
2018-10-19T17:50:11.405Z,14.83
2018-10-19T17:52:39.567Z,12.10
2018-10-19T17:55:08.199Z,14.23
2018-10-19T17:57:36.617Z,14.60
2018-10-19T18:00:04.936Z,15.03
2018-10-19T18:02:33.020Z,14.00
2018-10-19T18:05:01.224Z,15.63
2018-10-19T18:07:29.656Z,14.27
2018-10-19T18:09:57.804Z,14.07
2018-10-19T18:12:25.988Z,17.73
2018-10-19T18:14:54.135Z,16.63
2018-10-19T18:17:22.239Z,16.50
2018-10-19T18:19:50.403Z,21.67
2018-10-19T18:22:18.889Z,20.03
2018-10-19T18:24:46.655Z,19.40
2018-10-19T18:27:15.714Z,19.50
2018-10-19T18:29:43.825Z,23.20
2018-10-19T18:32:12.093Z,20.17
2018-10-19T18:34:40.255Z,20.40
2018-10-19T18:37:08.318Z,19.97
2018-10-19T18:39:36.447Z,18.50
2018-10-19T18:42:04.847Z,18.60
2018-10-19T18:44:32.956Z,19.43
2018-10-19T18:47:01.588Z,21.57
2018-10-19T18:49:29.735Z,18.83
2018-10-19T18:51:57.861Z,21.57
2018-10-19T18:54:26.016Z,19.50
2018-10-19T18:56:54.152Z,22.83
2018-10-19T18:59:22.341Z,20.53
2018-10-19T19:01:50.559Z,20.70
2018-10-19T19:04:18.779Z,18.20
2018-10-19T19:06:46.894Z,17.53
2018-10-19T19:09:15.332Z,19.73
2018-10-19T19:11:43.530Z,19.50
2018-10-19T19:14:11.792Z,21.37
2018-10-19T19:16:39.960Z,20.07
2018-10-19T19:19:08.155Z,23.57
2018-10-19T19:21:36.414Z,22.87
2018-10-19T19:24:10.059Z,25.10
2018-10-19T19:26:38.169Z,24.17
2018-10-19T19:29:06.949Z,18.87
2018-10-19T19:31:35.157Z,20.17
2018-10-19T19:34:08.731Z,21.00
2018-10-19T19:36:36.916Z,22.17
2018-10-19T19:39:06.832Z,26.57
2018-10-19T19:41:40.270Z,20.13
2018-10-19T19:44:08.463Z,21.70
2018-10-19T19:46:36.635Z,19.73
2018-10-19T19:49:10.975Z,22.07
2018-10-19T19:51:39.079Z,20.03
2018-10-19T19:54:07.358Z,23.57
2018-10-19T19:56:35.755Z,18.37
2018-10-19T19:59:04.145Z,21.17
2018-10-19T20:01:32.267Z,20.40
2018-10-19T20:04:00.447Z,22.37
2018-10-19T20:06:28.532Z,21.70
2018-10-19T20:08:56.791Z,25.30
2018-10-19T20:11:24.882Z,22.53
2018-10-19T20:13:53.172Z,19.10
2018-10-19T20:16:21.460Z,20.07
2018-10-19T20:18:49.613Z,22.10
2018-10-19T20:21:18.005Z,26.60
2018-10-19T20:23:46.169Z,18.10
2018-10-19T20:26:14.537Z,22.97
2018-10-19T20:28:42.507Z,23.53
2018-10-19T20:31:10.716Z,22.03
2018-10-19T20:33:38.869Z,24.07
2018-10-19T20:36:07.034Z,22.43
2018-10-19T20:38:35.214Z,24.60
2018-10-19T20:41:03.408Z,27.57
2018-10-19T20:43:31.643Z,23.87
2018-10-19T20:46:00.014Z,23.80
2018-10-19T20:48:28.173Z,22.63
2018-10-19T20:50:56.402Z,25.73
2018-10-19T20:53:24.562Z,24.60
2018-10-19T20:55:52.763Z,21.77
2018-10-19T20:58:20.901Z,24.97
2018-10-19T21:00:49.077Z,26.00
2018-10-19T21:03:17.159Z,23.77
2018-10-19T21:05:45.317Z,23.33
2018-10-19T21:08:13.516Z,22.87
2018-10-19T21:10:41.580Z,23.37
2018-10-19T21:13:09.719Z,23.73
2018-10-19T21:15:38.013Z,23.93
2018-10-19T21:18:06.196Z,24.13
2018-10-19T21:20:34.470Z,26.03
2018-10-19T21:23:02.690Z,24.97
2018-10-19T21:25:30.815Z,27.43
2018-10-19T21:27:58.965Z,25.87
2018-10-19T21:30:27.087Z,24.37
2018-10-19T21:32:55.219Z,25.27
2018-10-19T21:35:23.386Z,22.30
2018-10-19T21:37:51.532Z,25.83
2018-10-19T21:40:19.644Z,26.83
2018-10-19T21:42:47.806Z,26.07
2018-10-19T21:45:16.000Z,27.70
2018-10-19T21:47:44.204Z,29.97
2018-10-19T21:50:12.319Z,25.33
2018-10-19T21:52:40.413Z,26.70
2018-10-19T21:55:10.229Z,29.77
2018-10-19T21:57:38.402Z,25.33
2018-10-19T22:00:07.362Z,24.80
2018-10-19T22:02:35.479Z,27.47
2018-10-19T22:05:03.695Z,27.67
2018-10-19T22:07:31.895Z,27.57
2018-10-19T22:09:59.962Z,27.43
2018-10-19T22:12:28.055Z,30.50
2018-10-19T22:14:56.166Z,30.07
2018-10-19T22:17:24.347Z,26.87
2018-10-19T22:19:52.559Z,31.43
2018-10-19T22:22:20.693Z,30.60
2018-10-19T22:24:48.834Z,33.47
2018-10-19T22:27:16.935Z,33.60
2018-10-19T22:29:45.086Z,33.83
2018-10-19T22:32:13.197Z,31.60
2018-10-19T22:34:41.314Z,31.93
2018-10-19T22:37:09.548Z,29.43
2018-10-19T22:39:37.654Z,31.80
2018-10-19T22:42:05.851Z,32.50
2018-10-19T22:44:34.363Z,29.93
2018-10-19T22:47:02.596Z,27.33
2018-10-19T22:49:30.716Z,26.80
2018-10-19T22:51:58.876Z,28.33
2018-10-19T22:54:27.055Z,27.30
2018-10-19T22:56:55.224Z,25.97
2018-10-19T22:59:23.379Z,27.40
2018-10-19T23:01:51.479Z,27.20
2018-10-19T23:04:19.620Z,30.57
2018-10-19T23:06:47.716Z,32.27
2018-10-19T23:09:15.874Z,27.10
2018-10-19T23:11:43.980Z,28.63
2018-10-19T23:14:12.110Z,27.30
2018-10-19T23:16:40.221Z,26.47
2018-10-19T23:19:08.414Z,29.23
2018-10-19T23:21:36.560Z,30.67
2018-10-19T23:24:05.048Z,28.57
2018-10-19T23:26:33.222Z,25.43
2018-10-19T23:29:01.368Z,27.77
2018-10-19T23:31:29.649Z,27.60
2018-10-19T23:33:57.603Z,26.63
2018-10-19T23:36:25.967Z,25.83
2018-10-19T23:38:54.111Z,27.10
2018-10-19T23:41:22.246Z,29.03
2018-10-19T23:43:50.454Z,27.57
2018-10-19T23:46:18.595Z,29.63
2018-10-19T23:48:46.769Z,27.23
2018-10-19T23:51:14.933Z,24.57
2018-10-19T23:53:43.095Z,26.80
2018-10-19T23:56:11.201Z,29.73
2018-10-19T23:58:39.332Z,29.97
